Time;durP1;ratioP1;P1;durP2;ratioP2;P2;SDS_P1;SDS_P2;PMS_P1;PMS_P2;Temp;Humidity;BMP_temperature;BMP_pressure;BME280_temperature;BME280_humidity;BME280_pressure;Samples;Min_cycle;Max_cycle;Signal;HPM_P1;HPM_P2
2021/01/16 00:00:17;;;;;;;17.88;11.77;;;;;;;;;;5031115;28;20033;-75
2021/01/16 00:03:02;;;;;;;18.30;12.73;;;;;;;;;;5032850;28;20086;-75
2021/01/16 00:05:48;;;;;;;20.42;12.85;;;;;;;;;;5022967;28;20025;-77
2021/01/16 00:08:33;;;;;;;21.33;12.90;;;;;;;;;;5030414;28;20484;-76
2021/01/16 00:11:18;;;;;;;19.17;12.50;;;;;;;;;;5034190;28;20068;-77
2021/01/16 00:14:03;;;;;;;19.38;13.07;;;;;;;;;;5030428;28;20146;-77
2021/01/16 00:16:49;;;;;;;18.58;13.18;;;;;;;;;;5030395;28;20031;-76
2021/01/16 00:19:34;;;;;;;18.52;12.20;;;;;;;;;;5035000;28;20089;-76
2021/01/16 00:22:19;;;;;;;18.88;12.35;;;;;;;;;;5033270;28;20055;-76
2021/01/16 00:25:04;;;;;;;20.55;11.98;;;;;;;;;;5024862;28;20025;-76
2021/01/16 00:27:50;;;;;;;18.23;11.63;;;;;;;;;;5033373;28;20397;-76
2021/01/16 00:30:36;;;;;;;21.30;12.73;;;;;;;;;;5019158;28;20028;-76
2021/01/16 00:33:28;;;;;;;20.02;11.85;;;;;;;;;;5035403;28;20475;-76
2021/01/16 00:36:13;;;;;;;19.25;13.07;;;;;;;;;;5032114;28;20411;-76
2021/01/16 00:38:59;;;;;;;22.88;14.02;;;;;;;;;;5031290;28;20632;-78
2021/01/16 00:41:44;;;;;;;20.80;13.05;;;;;;;;;;5031927;28;20522;-76
2021/01/16 00:44:29;;;;;;;21.48;12.52;;;;;;;;;;5028754;28;20028;-76
2021/01/16 00:47:14;;;;;;;17.88;12.20;;;;;;;;;;5032816;28;20021;-76
2021/01/16 00:49:59;;;;;;;18.67;12.95;;;;;;;;;;5029253;28;20078;-76
2021/01/16 00:52:57;;;;;;;18.30;11.68;;;;;;;;;;5034622;28;20040;-76
2021/01/16 00:55:43;;;;;;;18.50;12.38;;;;;;;;;;5030279;28;20033;-76
2021/01/16 00:58:29;;;;;;;20.05;13.32;;;;;;;;;;5032110;28;20048;-78
2021/01/16 01:01:14;;;;;;;22.63;13.48;;;;;;;;;;5033139;28;20035;-76
2021/01/16 01:04:00;;;;;;;20.58;13.35;;;;;;;;;;5033141;28;20036;-76
2021/01/16 01:06:45;;;;;;;22.13;14.75;;;;;;;;;;5038028;28;20078;-76
2021/01/16 01:09:30;;;;;;;21.73;14.43;;;;;;;;;;5029062;28;20570;-76
2021/01/16 01:12:15;;;;;;;21.38;13.77;;;;;;;;;;5032916;28;20509;-76
2021/01/16 01:15:00;;;;;;;20.95;13.18;;;;;;;;;;5033085;28;20487;-77
2021/01/16 01:17:58;;;;;;;24.15;14.27;;;;;;;;;;5025497;28;20028;-75
2021/01/16 01:20:44;;;;;;;23.73;14.57;;;;;;;;;;5029580;28;20036;-76
2021/01/16 01:23:29;;;;;;;21.00;13.75;;;;;;;;;;5035463;28;20029;-76
2021/01/16 01:26:14;;;;;;;21.20;12.77;;;;;;;;;;5031780;28;20025;-78
2021/01/16 01:28:59;;;;;;;19.92;13.38;;;;;;;;;;5034667;28;20028;-76
2021/01/16 01:31:45;;;;;;;22.48;13.95;;;;;;;;;;5031014;28;20039;-77
2021/01/16 01:34:30;;;;;;;21.90;13.68;;;;;;;;;;5032574;28;20029;-76
2021/01/16 01:37:15;;;;;;;22.42;14.55;;;;;;;;;;5033502;28;20032;-76
2021/01/16 01:40:00;;;;;;;21.60;14.48;;;;;;;;;;5032967;28;20023;-76
2021/01/16 01:42:46;;;;;;;27.15;15.65;;;;;;;;;;5035963;28;20033;-77
2021/01/16 01:45:31;;;;;;;22.45;14.90;;;;;;;;;;5029601;28;20035;-76
2021/01/16 01:48:17;;;;;;;24.98;14.50;;;;;;;;;;5026562;28;20036;-76
2021/01/16 01:51:02;;;;;;;24.63;15.52;;;;;;;;;;5032217;28;20122;-77
2021/01/16 01:53:47;;;;;;;26.40;16.60;;;;;;;;;;5028534;28;20082;-77
2021/01/16 01:56:36;;;;;;;23.35;14.07;;;;;;;;;;5028573;28;20021;-77
2021/01/16 01:59:22;;;;;;;22.65;14.48;;;;;;;;;;5030034;28;20037;-77
2021/01/16 02:02:08;;;;;;;21.95;13.80;;;;;;;;;;5030926;28;20024;-76
2021/01/16 02:04:55;;;;;;;21.83;13.73;;;;;;;;;;5027799;28;20029;-77
2021/01/16 02:07:40;;;;;;;21.83;14.90;;;;;;;;;;5028347;28;20048;-77
2021/01/16 02:10:25;;;;;;;21.08;13.27;;;;;;;;;;5031988;28;20036;-77
2021/01/16 02:13:10;;;;;;;21.25;14.38;;;;;;;;;;5033050;28;20549;-77
2021/01/16 02:16:03;;;;;;;23.10;13.57;;;;;;;;;;5035232;28;20032;-77
2021/01/16 02:18:50;;;;;;;19.70;12.95;;;;;;;;;;5030943;28;20028;-77
2021/01/16 02:21:36;;;;;;;23.05;14.32;;;;;;;;;;5036674;28;20052;-77
2021/01/16 02:24:22;;;;;;;21.70;15.25;;;;;;;;;;5037863;28;20471;-77
2021/01/16 02:27:34;;;;;;;24.25;14.38;;;;;;;;;;5033471;28;20033;-77
2021/01/16 02:30:21;;;;;;;23.48;14.45;;;;;;;;;;5031352;28;20372;-77
2021/01/16 02:33:08;;;;;;;22.20;13.25;;;;;;;;;;5035061;28;20395;-77
2021/01/16 02:36:16;;;;;;;22.15;13.82;;;;;;;;;;5035290;28;20253;-77
2021/01/16 02:39:01;;;;;;;21.40;13.88;;;;;;;;;;5038375;28;20039;-77
2021/01/16 02:41:57;;;;;;;21.95;13.90;;;;;;;;;;5039942;28;20602;-77
2021/01/16 02:44:47;;;;;;;20.42;13.55;;;;;;;;;;5034883;28;20029;-77
2021/01/16 02:47:39;;;;;;;24.23;14.57;;;;;;;;;;5033317;28;20102;-77
2021/01/16 02:50:27;;;;;;;24.40;16.73;;;;;;;;;;5036081;28;20029;-78
2021/01/16 02:53:12;;;;;;;26.95;14.48;;;;;;;;;;5030636;28;20029;-77
2021/01/16 02:55:58;;;;;;;22.95;15.43;;;;;;;;;;5035718;28;20125;-77
2021/01/16 02:58:43;;;;;;;21.80;13.77;;;;;;;;;;5033210;28;20100;-77
2021/01/16 03:01:28;;;;;;;23.10;15.07;;;;;;;;;;5034755;28;20035;-77
2021/01/16 03:04:14;;;;;;;21.95;13.68;;;;;;;;;;5036365;28;20025;-77
2021/01/16 03:06:59;;;;;;;24.00;15.95;;;;;;;;;;5032103;28;20060;-77
2021/01/16 03:09:44;;;;;;;24.67;16.38;;;;;;;;;;5033702;28;20037;-77
2021/01/16 03:12:30;;;;;;;24.20;14.60;;;;;;;;;;5037883;28;20037;-76
2021/01/16 03:15:16;;;;;;;23.42;14.70;;;;;;;;;;5037656;28;20040;-77
2021/01/16 03:18:03;;;;;;;25.65;17.60;;;;;;;;;;5040264;28;20033;-78
2021/01/16 03:20:48;;;;;;;24.35;14.95;;;;;;;;;;5035894;28;20037;-76
2021/01/16 03:23:33;;;;;;;24.42;15.55;;;;;;;;;;5024195;28;20039;-76
2021/01/16 03:26:18;;;;;;;25.48;16.45;;;;;;;;;;5033259;28;20467;-75
2021/01/16 03:29:04;;;;;;;24.85;15.98;;;;;;;;;;5039351;28;20029;-76
2021/01/16 03:31:49;;;;;;;23.40;16.20;;;;;;;;;;5031898;28;20024;-75
2021/01/16 03:34:34;;;;;;;26.25;16.45;;;;;;;;;;5027781;28;20029;-76
2021/01/16 03:37:20;;;;;;;26.77;16.13;;;;;;;;;;5034408;28;20352;-76
2021/01/16 03:40:06;;;;;;;23.73;14.98;;;;;;;;;;5032029;28;20032;-75
2021/01/16 03:42:51;;;;;;;25.67;16.27;;;;;;;;;;5034012;28;20039;-76
2021/01/16 03:45:36;;;;;;;22.10;15.80;;;;;;;;;;5036599;28;20518;-75
2021/01/16 03:48:21;;;;;;;24.67;15.70;;;;;;;;;;5033693;28;20086;-76
2021/01/16 03:51:07;;;;;;;22.75;14.13;;;;;;;;;;5031413;28;20029;-76
2021/01/16 03:53:52;;;;;;;28.40;17.27;;;;;;;;;;5033458;28;20387;-76
2021/01/16 03:56:37;;;;;;;26.65;16.65;;;;;;;;;;5032305;28;20025;-76
2021/01/16 03:59:22;;;;;;;25.75;16.73;;;;;;;;;;5031538;28;20110;-75
2021/01/16 04:02:07;;;;;;;26.42;17.13;;;;;;;;;;5035961;28;20479;-76
2021/01/16 04:04:52;;;;;;;25.10;15.48;;;;;;;;;;5033695;28;20037;-76
2021/01/16 04:07:38;;;;;;;26.30;15.15;;;;;;;;;;5027781;28;20083;-76
2021/01/16 04:10:23;;;;;;;27.65;17.02;;;;;;;;;;5030794;28;20029;-75
2021/01/16 04:13:08;;;;;;;27.35;16.27;;;;;;;;;;5032458;28;20044;-76
2021/01/16 04:15:55;;;;;;;26.20;17.10;;;;;;;;;;5035083;28;20502;-75
2021/01/16 04:18:40;;;;;;;25.17;16.90;;;;;;;;;;5026165;28;20033;-75
2021/01/16 04:21:26;;;;;;;27.10;17.90;;;;;;;;;;5034347;28;20383;-76
2021/01/16 04:24:11;;;;;;;31.45;17.23;;;;;;;;;;5034753;28;20033;-76
2021/01/16 04:26:56;;;;;;;26.98;15.45;;;;;;;;;;5031081;28;20029;-76
2021/01/16 04:29:42;;;;;;;26.85;16.67;;;;;;;;;;5032452;28;20040;-76
2021/01/16 04:32:27;;;;;;;27.10;17.05;;;;;;;;;;5030292;28;20044;-76
2021/01/16 04:35:12;;;;;;;29.90;18.20;;;;;;;;;;5031802;28;20067;-76
2021/01/16 04:37:57;;;;;;;27.88;17.48;;;;;;;;;;5033905;28;20033;-76
2021/01/16 04:40:43;;;;;;;27.77;19.17;;;;;;;;;;5027356;28;20499;-76
2021/01/16 04:43:28;;;;;;;29.70;17.13;;;;;;;;;;5033842;28;20116;-76
2021/01/16 04:46:13;;;;;;;31.48;17.30;;;;;;;;;;5040009;28;20115;-76
2021/01/16 04:49:05;;;;;;;32.15;18.00;;;;;;;;;;5031454;28;20064;-75
2021/01/16 04:51:52;;;;;;;27.20;17.85;;;;;;;;;;5032878;28;20037;-75
2021/01/16 04:54:37;;;;;;;31.77;20.30;;;;;;;;;;5035994;28;20483;-75
2021/01/16 04:57:23;;;;;;;29.20;17.88;;;;;;;;;;5034755;28;20068;-75
2021/01/16 05:00:10;;;;;;;27.83;17.45;;;;;;;;;;5031437;28;20071;-76
2021/01/16 05:02:56;;;;;;;30.73;17.80;;;;;;;;;;5035263;28;20643;-76
2021/01/16 05:05:42;;;;;;;29.38;18.35;;;;;;;;;;5032329;28;20040;-75
2021/01/16 05:08:27;;;;;;;30.00;19.30;;;;;;;;;;5030787;28;20493;-75
2021/01/16 05:11:24;;;;;;;34.75;18.63;;;;;;;;;;5036077;28;20036;-76
2021/01/16 05:14:10;;;;;;;26.10;15.77;;;;;;;;;;5032983;28;20070;-75
2021/01/16 05:16:56;;;;;;;27.58;18.55;;;;;;;;;;5033346;28;20032;-75
2021/01/16 05:19:41;;;;;;;28.25;17.58;;;;;;;;;;5034070;28;20077;-76
2021/01/16 05:22:27;;;;;;;30.67;20.20;;;;;;;;;;5029112;28;20056;-76
2021/01/16 05:25:12;;;;;;;28.23;17.55;;;;;;;;;;5029105;28;20182;-76
2021/01/16 05:28:01;;;;;;;31.02;18.38;;;;;;;;;;5029332;28;20055;-76
2021/01/16 05:30:49;;;;;;;30.20;18.27;;;;;;;;;;5024907;28;20041;-76
2021/01/16 05:33:36;;;;;;;27.30;17.27;;;;;;;;;;5032672;28;20028;-76
2021/01/16 05:36:21;;;;;;;33.03;18.83;;;;;;;;;;5027020;28;20033;-75
2021/01/16 05:39:07;;;;;;;31.02;19.13;;;;;;;;;;5027596;28;20082;-76
2021/01/16 05:41:55;;;;;;;28.15;18.17;;;;;;;;;;5022981;28;20285;-75
2021/01/16 05:44:42;;;;;;;28.52;17.50;;;;;;;;;;5033791;28;20317;-76
2021/01/16 05:47:28;;;;;;;28.38;18.40;;;;;;;;;;5035325;28;20059;-75
2021/01/16 05:50:13;;;;;;;29.80;18.10;;;;;;;;;;5037151;28;20025;-75
2021/01/16 05:52:59;;;;;;;28.35;18.58;;;;;;;;;;5032050;28;20036;-75
2021/01/16 05:55:45;;;;;;;31.15;18.73;;;;;;;;;;5033673;28;20449;-75
2021/01/16 05:58:33;;;;;;;28.10;17.17;;;;;;;;;;5034900;28;20064;-75
2021/01/16 06:01:22;;;;;;;27.17;17.45;;;;;;;;;;5034508;28;20028;-75
2021/01/16 06:04:13;;;;;;;28.33;18.37;;;;;;;;;;5036197;28;20029;-75
2021/01/16 06:07:06;;;;;;;29.50;18.95;;;;;;;;;;5042605;28;20367;-76
2021/01/16 06:09:52;;;;;;;29.35;17.17;;;;;;;;;;5034104;28;20038;-75
2021/01/16 06:12:37;;;;;;;29.20;19.10;;;;;;;;;;5035567;28;20854;-75
2021/01/16 06:15:24;;;;;;;31.40;20.15;;;;;;;;;;5036215;28;20541;-76
2021/01/16 06:18:23;;;;;;;31.05;19.67;;;;;;;;;;5038210;28;20099;-75
2021/01/16 06:21:09;;;;;;;28.25;17.08;;;;;;;;;;5039346;28;20028;-76
2021/01/16 06:23:56;;;;;;;33.20;19.45;;;;;;;;;;5033897;28;20050;-75
2021/01/16 06:26:42;;;;;;;29.75;18.55;;;;;;;;;;5033663;28;20373;-76
2021/01/16 06:29:33;;;;;;;28.48;18.65;;;;;;;;;;5032841;28;20040;-75
2021/01/16 06:32:20;;;;;;;27.73;18.27;;;;;;;;;;5032223;28;20025;-76
2021/01/16 06:35:10;;;;;;;30.65;18.85;;;;;;;;;;5035525;28;20060;-75
2021/01/16 06:37:55;;;;;;;20.70;13.33;;;;;;;;;;5038180;28;20029;-77
2021/01/16 06:40:40;;;;;;;31.00;19.25;;;;;;;;;;5035486;28;20255;-78
2021/01/16 06:43:32;;;;;;;30.17;18.63;;;;;;;;;;5031334;28;20489;-78
2021/01/16 06:46:17;;;;;;;32.70;19.00;;;;;;;;;;5033527;28;20545;-75
2021/01/16 06:49:03;;;;;;;30.17;19.13;;;;;;;;;;5033078;28;20028;-78
2021/01/16 06:51:50;;;;;;;26.77;17.70;;;;;;;;;;5035732;28;20033;-78
2021/01/16 06:54:36;;;;;;;58.90;35.38;;;;;;;;;;5029693;28;20281;-77
2021/01/16 06:57:22;;;;;;;32.10;22.13;;;;;;;;;;5029450;28;20083;-77
2021/01/16 07:00:08;;;;;;;30.05;18.52;;;;;;;;;;5021107;28;20031;-78
2021/01/16 07:02:55;;;;;;;27.27;17.85;;;;;;;;;;5033029;28;20108;-78
2021/01/16 07:05:40;;;;;;;27.73;17.20;;;;;;;;;;5034933;28;20028;-77
2021/01/16 07:08:28;;;;;;;30.42;17.05;;;;;;;;;;5028831;28;20118;-77
2021/01/16 07:11:13;;;;;;;29.48;18.25;;;;;;;;;;5032107;28;20031;-78
2021/01/16 07:13:58;;;;;;;28.92;17.60;;;;;;;;;;5025172;28;20029;-78
2021/01/16 07:16:45;;;;;;;28.60;18.63;;;;;;;;;;5031093;28;20124;-78
2021/01/16 07:19:30;;;;;;;27.35;16.73;;;;;;;;;;5031375;28;20029;-77
2021/01/16 07:22:16;;;;;;;29.70;18.73;;;;;;;;;;5035177;28;20029;-77
2021/01/16 07:25:03;;;;;;;27.77;18.80;;;;;;;;;;5031735;28;20435;-77
2021/01/16 07:27:49;;;;;;;29.88;19.90;;;;;;;;;;5030781;28;20029;-78
2021/01/16 07:30:35;;;;;;;27.77;19.17;;;;;;;;;;5031893;28;20017;-78
2021/01/16 07:33:21;;;;;;;30.05;18.90;;;;;;;;;;5033199;28;20037;-78
2021/01/16 07:36:09;;;;;;;28.65;17.00;;;;;;;;;;5031724;28;20025;-78
2021/01/16 07:38:54;;;;;;;29.90;17.83;;;;;;;;;;5033043;28;20028;-78
2021/01/16 07:41:47;;;;;;;28.90;18.05;;;;;;;;;;5030922;28;20386;-78
2021/01/16 07:44:39;;;;;;;29.00;18.00;;;;;;;;;;5024906;28;20044;-78
2021/01/16 07:47:24;;;;;;;28.70;17.13;;;;;;;;;;5035863;28;20029;-78
2021/01/16 07:50:19;;;;;;;53.50;36.17;;;;;;;;;;5027785;28;20104;-78
2021/01/16 07:53:05;;;;;;;53.92;34.55;;;;;;;;;;5035368;28;20108;-77
2021/01/16 07:55:59;;;;;;;34.42;21.70;;;;;;;;;;5032091;28;20528;-77
2021/01/16 07:58:49;;;;;;;30.10;19.83;;;;;;;;;;5032785;28;20486;-78
2021/01/16 08:01:45;;;;;;;28.70;18.27;;;;;;;;;;5030156;28;20033;-77
2021/01/16 08:04:41;;;;;;;30.60;19.00;;;;;;;;;;5033144;28;20040;-77
2021/01/16 08:07:37;;;;;;;29.92;18.67;;;;;;;;;;5030231;28;20049;-78
2021/01/16 08:10:22;;;;;;;28.85;18.92;;;;;;;;;;5033926;28;20029;-78
2021/01/16 08:13:08;;;;;;;32.05;17.67;;;;;;;;;;5035235;28;20029;-78
2021/01/16 08:16:02;;;;;;;28.13;18.02;;;;;;;;;;5030124;28;20058;-78
2021/01/16 08:18:48;;;;;;;28.92;18.00;;;;;;;;;;5032716;28;20025;-77
2021/01/16 08:21:33;;;;;;;33.58;21.13;;;;;;;;;;5030015;28;20032;-78
2021/01/16 08:24:19;;;;;;;74.18;47.28;;;;;;;;;;5031150;28;20033;-78
2021/01/16 08:27:04;;;;;;;35.47;22.98;;;;;;;;;;5031502;28;20400;-77
2021/01/16 08:29:50;;;;;;;33.35;20.67;;;;;;;;;;5027636;28;20040;-77
2021/01/16 08:32:51;;;;;;;28.20;18.75;;;;;;;;;;5028647;28;20025;-77
2021/01/16 08:35:39;;;;;;;30.17;19.83;;;;;;;;;;5032233;28;20056;-77
2021/01/16 08:38:25;;;;;;;31.80;18.70;;;;;;;;;;5029359;28;20555;-77
2021/01/16 08:41:10;;;;;;;31.27;20.92;;;;;;;;;;5031839;28;20055;-77
2021/01/16 08:43:57;;;;;;;27.48;19.05;;;;;;;;;;5032089;28;20063;-77
2021/01/16 08:46:42;;;;;;;31.55;18.70;;;;;;;;;;5032053;28;20033;-78
2021/01/16 08:49:30;;;;;;;29.15;19.60;;;;;;;;;;5034574;28;20036;-77
2021/01/16 08:52:34;;;;;;;28.63;18.15;;;;;;;;;;5026791;28;20424;-77
2021/01/16 08:55:24;;;;;;;31.58;20.40;;;;;;;;;;5043561;28;20028;-77
2021/01/16 08:58:10;;;;;;;31.23;20.48;;;;;;;;;;5026774;28;20028;-78
2021/01/16 09:00:55;;;;;;;30.40;19.10;;;;;;;;;;5033655;28;20028;-77
2021/01/16 09:03:41;;;;;;;28.52;19.23;;;;;;;;;;5028455;28;20392;-78
2021/01/16 09:06:26;;;;;;;38.47;24.73;;;;;;;;;;5031334;28;20036;-78
2021/01/16 09:09:14;;;;;;;67.25;43.60;;;;;;;;;;5026613;28;20024;-77
2021/01/16 09:12:05;;;;;;;32.20;20.38;;;;;;;;;;5031701;28;20029;-77
2021/01/16 09:14:50;;;;;;;29.20;19.45;;;;;;;;;;5029414;28;20036;-77
2021/01/16 09:17:36;;;;;;;29.80;19.63;;;;;;;;;;5032240;28;20029;-79
2021/01/16 09:20:23;;;;;;;33.70;20.77;;;;;;;;;;5037368;28;20099;-77
2021/01/16 09:23:18;;;;;;;31.77;19.58;;;;;;;;;;5043359;28;20276;-77
2021/01/16 09:26:03;;;;;;;30.45;18.23;;;;;;;;;;5037299;28;20541;-77
2021/01/16 09:28:54;;;;;;;29.90;18.38;;;;;;;;;;5036553;28;20029;-76
2021/01/16 09:31:40;;;;;;;29.00;20.05;;;;;;;;;;5035910;28;20881;-77
2021/01/16 09:34:34;;;;;;;27.13;18.65;;;;;;;;;;5030958;28;20060;-78
2021/01/16 09:37:23;;;;;;;30.15;18.52;;;;;;;;;;5033415;28;20025;-76
2021/01/16 09:40:10;;;;;;;38.55;20.33;;;;;;;;;;5033661;28;20036;-80
2021/01/16 09:42:55;;;;;;;28.58;18.88;;;;;;;;;;5033516;28;20045;-76
2021/01/16 09:45:57;;;;;;;23.90;16.00;;;;;;;;;;5035547;28;20067;-79
2021/01/16 09:48:42;;;;;;;27.30;17.23;;;;;;;;;;5035557;28;20449;-77
2021/01/16 09:51:31;;;;;;;23.25;15.35;;;;;;;;;;5048946;28;20040;-76
2021/01/16 09:54:16;;;;;;;21.45;13.75;;;;;;;;;;5034961;28;20032;-76
2021/01/16 09:57:02;;;;;;;24.33;16.33;;;;;;;;;;5036567;28;20037;-77
2021/01/16 10:00:06;;;;;;;22.52;14.00;;;;;;;;;;5033135;28;20029;-76
2021/01/16 10:03:04;;;;;;;20.15;13.38;;;;;;;;;;5038496;28;20041;-77
2021/01/16 10:06:02;;;;;;;22.23;13.30;;;;;;;;;;5037716;28;20052;-76
2021/01/16 10:08:48;;;;;;;18.45;11.20;;;;;;;;;;5040585;28;20045;-77
2021/01/16 10:11:41;;;;;;;20.65;13.35;;;;;;;;;;5036416;28;20043;-77
2021/01/16 10:14:34;;;;;;;23.38;14.10;;;;;;;;;;5034393;28;20056;-77
2021/01/16 10:17:19;;;;;;;23.00;12.95;;;;;;;;;;5035496;28;20108;-77
2021/01/16 10:20:06;;;;;;;18.65;11.98;;;;;;;;;;5036661;28;20027;-77
2021/01/16 10:22:54;;;;;;;20.10;12.13;;;;;;;;;;5035326;28;20400;-77
2021/01/16 10:25:40;;;;;;;19.85;11.50;;;;;;;;;;5037016;28;20033;-78
2021/01/16 10:28:29;;;;;;;17.70;10.77;;;;;;;;;;5037470;28;20029;-77
2021/01/16 10:31:21;;;;;;;17.67;11.33;;;;;;;;;;5027224;28;20021;-77
2021/01/16 10:34:11;;;;;;;18.40;11.73;;;;;;;;;;5027842;28;20018;-77
2021/01/16 10:36:57;;;;;;;17.05;10.60;;;;;;;;;;5033520;28;20025;-77
2021/01/16 10:39:45;;;;;;;18.70;12.23;;;;;;;;;;5030766;28;20443;-77
2021/01/16 10:42:40;;;;;;;16.85;9.63;;;;;;;;;;5030713;28;20072;-77
2021/01/16 10:45:29;;;;;;;16.38;10.13;;;;;;;;;;5034647;28;20115;-77
2021/01/16 10:48:19;;;;;;;34.80;22.40;;;;;;;;;;5032937;28;20029;-75
2021/01/16 10:51:04;;;;;;;;;;;;;;;;;;5030847;28;20484;-76
2021/01/16 10:53:55;;;;;;;17.67;10.30;;;;;;;;;;5029454;28;20435;-77
2021/01/16 10:56:43;;;;;;;15.88;9.90;;;;;;;;;;5032821;28;20091;-77
2021/01/16 10:59:30;;;;;;;16.60;10.30;;;;;;;;;;5033807;28;20087;-77
2021/01/16 11:02:16;;;;;;;14.73;9.15;;;;;;;;;;5028496;28;20024;-77
2021/01/16 11:05:33;;;;;;;15.63;10.13;;;;;;;;;;5032816;28;20507;-77
2021/01/16 11:08:25;;;;;;;15.60;9.27;;;;;;;;;;5008098;28;20503;-77
2021/01/16 11:11:36;;;;;;;13.25;8.05;;;;;;;;;;5037382;28;20047;-77
2021/01/16 11:14:29;;;;;;;14.10;8.40;;;;;;;;;;5043189;28;20028;-78
2021/01/16 11:17:14;;;;;;;13.73;8.05;;;;;;;;;;5033301;28;20388;-77
2021/01/16 11:20:00;;;;;;;15.98;8.70;;;;;;;;;;5034283;28;20082;-80
2021/01/16 11:22:50;;;;;;;13.98;8.50;;;;;;;;;;5035393;28;20029;-78
2021/01/16 11:25:45;;;;;;;11.80;7.43;;;;;;;;;;5037995;28;20029;-77
2021/01/16 11:28:45;;;;;;;13.43;7.25;;;;;;;;;;5030456;28;20060;-77
2021/01/16 11:31:31;;;;;;;11.05;7.13;;;;;;;;;;5034523;28;20024;-77
2021/01/16 11:34:21;;;;;;;12.63;7.03;;;;;;;;;;5036027;28;20032;-77
2021/01/16 11:37:06;;;;;;;16.60;10.02;;;;;;;;;;5034387;28;20066;-77
2021/01/16 11:39:53;;;;;;;12.45;7.43;;;;;;;;;;5031961;28;20017;-78
2021/01/16 11:42:47;;;;;;;12.57;7.38;;;;;;;;;;5051771;28;20037;-78
2021/01/16 11:45:33;;;;;;;9.38;5.35;;;;;;;;;;5032574;28;20536;-75
2021/01/16 11:48:18;;;;;;;9.38;5.85;;;;;;;;;;5032936;28;20036;-77
2021/01/16 11:51:16;;;;;;;8.98;5.25;;;;;;;;;;5030918;28;20036;-77
2021/01/16 11:54:01;;;;;;;9.18;5.38;;;;;;;;;;5034857;28;20056;-77
2021/01/16 11:56:47;;;;;;;9.48;5.47;;;;;;;;;;5034997;28;20020;-79
2021/01/16 11:59:32;;;;;;;9.00;5.47;;;;;;;;;;5031465;28;20057;-78
2021/01/16 12:02:20;;;;;;;10.68;5.72;;;;;;;;;;5029118;28;20033;-78
2021/01/16 12:05:11;;;;;;;8.90;5.13;;;;;;;;;;5027233;28;20394;-77
2021/01/16 12:07:57;;;;;;;9.65;5.35;;;;;;;;;;5046798;28;20826;-79
2021/01/16 12:10:43;;;;;;;8.32;4.78;;;;;;;;;;5026621;28;20045;-77
2021/01/16 12:13:28;;;;;;;9.93;5.32;;;;;;;;;;5034369;28;20074;-77
2021/01/16 12:16:13;;;;;;;11.65;5.20;;;;;;;;;;5024260;28;20071;-77
2021/01/16 12:18:59;;;;;;;7.88;4.80;;;;;;;;;;5032416;28;20422;-78
2021/01/16 12:21:46;;;;;;;9.32;5.30;;;;;;;;;;5028057;28;20036;-78
2021/01/16 12:24:31;;;;;;;7.63;4.30;;;;;;;;;;5033858;28;20058;-77
2021/01/16 12:27:20;;;;;;;9.48;5.18;;;;;;;;;;5031936;28;20086;-78
2021/01/16 12:30:06;;;;;;;12.45;6.80;;;;;;;;;;5031313;28;20670;-79
2021/01/16 12:32:51;;;;;;;9.95;5.68;;;;;;;;;;5029715;28;20052;-79
2021/01/16 12:35:36;;;;;;;9.80;5.25;;;;;;;;;;5045197;28;20056;-78
2021/01/16 12:38:21;;;;;;;16.10;7.95;;;;;;;;;;5032933;28;20039;-78
2021/01/16 12:41:07;;;;;;;19.38;11.88;;;;;;;;;;5031579;28;20024;-78
2021/01/16 12:43:52;;;;;;;20.20;12.25;;;;;;;;;;5035583;28;20110;-78
2021/01/16 12:46:39;;;;;;;20.88;13.38;;;;;;;;;;5045456;28;20017;-78
2021/01/16 12:49:24;;;;;;;21.60;15.73;;;;;;;;;;5036639;28;20052;-77
2021/01/16 12:52:10;;;;;;;22.25;14.13;;;;;;;;;;5029730;28;20551;-77
2021/01/16 12:54:59;;;;;;;21.08;13.85;;;;;;;;;;5031624;28;20025;-77
2021/01/16 12:57:48;;;;;;;21.80;13.77;;;;;;;;;;5027346;28;20030;-77
2021/01/16 13:00:34;;;;;;;20.55;14.90;;;;;;;;;;5031047;28;20630;-78
2021/01/16 13:03:19;;;;;;;24.70;14.88;;;;;;;;;;5027297;28;20025;-77
2021/01/16 13:06:05;;;;;;;20.08;14.18;;;;;;;;;;5032909;28;20477;-78
2021/01/16 13:08:50;;;;;;;24.27;15.40;;;;;;;;;;5029437;28;20043;-78
2021/01/16 13:11:35;;;;;;;43.60;30.98;;;;;;;;;;5032572;28;20147;-77
2021/01/16 13:14:20;;;;;;;28.02;19.25;;;;;;;;;;5030170;28;20162;-78
2021/01/16 13:17:06;;;;;;;22.80;14.15;;;;;;;;;;5032974;28;20082;-78
2021/01/16 13:19:52;;;;;;;18.55;12.52;;;;;;;;;;5031776;28;20444;-78
2021/01/16 13:22:45;;;;;;;21.25;13.15;;;;;;;;;;5029370;28;20429;-77
2021/01/16 13:25:30;;;;;;;22.23;15.35;;;;;;;;;;5026709;28;20090;-77
2021/01/16 13:28:16;;;;;;;44.17;26.98;;;;;;;;;;5029092;28;20044;-78
2021/01/16 13:31:01;;;;;;;23.92;16.50;;;;;;;;;;5033225;28;20020;-77
2021/01/16 13:33:47;;;;;;;22.55;14.93;;;;;;;;;;5031286;28;20059;-77
2021/01/16 13:36:35;;;;;;;24.55;16.23;;;;;;;;;;5034220;28;20040;-78
2021/01/16 13:39:20;;;;;;;23.73;15.55;;;;;;;;;;5030948;28;20037;-77
2021/01/16 13:42:06;;;;;;;26.95;17.65;;;;;;;;;;5025498;28;20020;-77
2021/01/16 13:44:59;;;;;;;25.50;16.95;;;;;;;;;;5032319;28;20127;-77
2021/01/16 13:47:53;;;;;;;23.02;15.75;;;;;;;;;;5029142;28;20049;-76
2021/01/16 13:50:38;;;;;;;22.80;15.85;;;;;;;;;;5026869;28;20045;-77
2021/01/16 13:53:25;;;;;;;26.35;17.95;;;;;;;;;;5034132;28;20488;-76
2021/01/16 13:56:10;;;;;;;26.02;17.15;;;;;;;;;;5029982;28;20716;-76
2021/01/16 13:58:55;;;;;;;24.85;15.88;;;;;;;;;;5030400;28;20086;-75
2021/01/16 14:01:41;;;;;;;24.33;16.55;;;;;;;;;;5032434;28;20064;-76
2021/01/16 14:04:27;;;;;;;25.45;18.02;;;;;;;;;;5028122;28;20082;-76
2021/01/16 14:07:21;;;;;;;25.83;17.05;;;;;;;;;;5034083;28;20511;-76
2021/01/16 14:10:07;;;;;;;24.33;16.63;;;;;;;;;;5031637;28;20583;-76
2021/01/16 14:13:06;;;;;;;25.63;17.80;;;;;;;;;;5035687;28;20032;-76
2021/01/16 14:15:55;;;;;;;23.60;15.80;;;;;;;;;;5027387;28;20104;-76
2021/01/16 14:18:40;;;;;;;42.00;25.52;;;;;;;;;;5033028;28;20038;-76
2021/01/16 14:21:26;;;;;;;29.92;19.55;;;;;;;;;;5032647;28;20037;-76
2021/01/16 14:24:11;;;;;;;26.67;18.30;;;;;;;;;;5036182;28;20033;-76
2021/01/16 14:26:58;;;;;;;26.45;17.20;;;;;;;;;;5032493;28;20032;-76
2021/01/16 14:29:44;;;;;;;27.52;17.30;;;;;;;;;;5034864;28;20127;-76
2021/01/16 14:32:29;;;;;;;29.67;19.65;;;;;;;;;;5031513;28;20035;-76
2021/01/16 14:35:18;;;;;;;26.67;17.67;;;;;;;;;;5034005;28;20078;-76
2021/01/16 14:38:04;;;;;;;27.70;19.35;;;;;;;;;;5035419;28;20021;-76
2021/01/16 14:40:51;;;;;;;26.05;17.92;;;;;;;;;;5032159;28;20033;-76
2021/01/16 14:43:38;;;;;;;70.25;44.00;;;;;;;;;;5036619;28;20074;-76
2021/01/16 14:46:23;;;;;;;32.88;21.38;;;;;;;;;;5032678;28;20024;-75
2021/01/16 14:49:09;;;;;;;27.33;18.70;;;;;;;;;;5035932;28;20037;-76
2021/01/16 14:52:03;;;;;;;30.52;18.45;;;;;;;;;;5033913;28;20033;-76
2021/01/16 14:54:50;;;;;;;28.17;18.25;;;;;;;;;;5033678;28;20021;-75
2021/01/16 14:57:36;;;;;;;29.27;18.58;;;;;;;;;;5033017;28;20385;-76
2021/01/16 15:00:21;;;;;;;28.45;18.17;;;;;;;;;;5034838;28;20032;-76
2021/01/16 15:03:07;;;;;;;34.47;20.48;;;;;;;;;;5046496;28;20028;-76
2021/01/16 15:05:52;;;;;;;30.63;17.38;;;;;;;;;;5034865;28;20047;-76
2021/01/16 15:08:47;;;;;;;28.15;18.13;;;;;;;;;;5029100;28;20144;-81
2021/01/16 15:11:33;;;;;;;26.13;17.45;;;;;;;;;;5035676;28;20029;-75
2021/01/16 15:14:20;;;;;;;29.20;18.17;;;;;;;;;;5030331;28;20021;-76
2021/01/16 15:17:06;;;;;;;32.35;17.80;;;;;;;;;;5031784;28;20419;-76
2021/01/16 15:19:54;;;;;;;29.30;18.27;;;;;;;;;;5031707;28;20486;-76
2021/01/16 15:22:39;;;;;;;29.17;18.15;;;;;;;;;;5029741;28;20037;-76
2021/01/16 15:25:24;;;;;;;27.17;18.23;;;;;;;;;;5032345;28;20044;-76
2021/01/16 15:28:10;;;;;;;25.98;17.83;;;;;;;;;;5032662;28;20036;-76
2021/01/16 15:30:59;;;;;;;56.72;34.75;;;;;;;;;;5032508;28;20033;-76
2021/01/16 15:33:46;;;;;;;23.23;15.88;;;;;;;;;;5033871;28;20029;-76
2021/01/16 15:36:32;;;;;;;27.33;16.30;;;;;;;;;;5039255;28;20033;-76
2021/01/16 15:39:17;;;;;;;25.48;17.70;;;;;;;;;;5030215;28;20029;-76
2021/01/16 15:42:02;;;;;;;24.42;17.17;;;;;;;;;;5033700;28;20070;-76
2021/01/16 15:44:48;;;;;;;26.42;17.23;;;;;;;;;;5032420;28;20547;-76
2021/01/16 15:47:43;;;;;;;23.58;15.52;;;;;;;;;;5033848;28;20518;-76
2021/01/16 15:50:30;;;;;;;21.10;14.68;;;;;;;;;;5013317;28;20025;-77
2021/01/16 15:53:19;;;;;;;27.17;16.30;;;;;;;;;;5033387;28;20025;-77
2021/01/16 15:56:04;;;;;;;22.38;15.10;;;;;;;;;;5034532;28;20029;-77
2021/01/16 15:58:50;;;;;;;21.98;13.88;;;;;;;;;;5031392;28;20028;-77
2021/01/16 16:01:37;;;;;;;21.40;14.50;;;;;;;;;;5033302;28;20028;-76
2021/01/16 16:04:22;;;;;;;20.58;14.40;;;;;;;;;;5019307;28;20094;-77
2021/01/16 16:07:09;;;;;;;21.45;14.85;;;;;;;;;;5031766;28;20569;-77
2021/01/16 16:09:54;;;;;;;38.70;24.38;;;;;;;;;;5030625;28;20098;-77
2021/01/16 16:12:40;;;;;;;34.70;20.92;;;;;;;;;;5033291;28;20113;-77
2021/01/16 16:15:28;;;;;;;25.08;15.73;;;;;;;;;;5031150;28;20467;-77